Terminal Aerodrome Forecast
Issued by NWS Atlanta, GA

Home | Current Version | Previous Version | Text Only | Print | Product List | Glossary On
Versions: 1 2 3 4 5 6 7 8 9 10 11 12 13 14 15
000
FTUS42 KFFC 231731
TAFMCN
TAF
KMCN 231731Z 2318/2418 10015KT P6SM BKN040
     FM240000 11005KT P6SM BKN050
     FM240800 09004KT P6SM BKN015 BKN040
     FM241500 13005KT P6SM BKN040=

USA.gov is the U.S. government's official web portal to all federal, state and local government web resources and services.